sensor_id;sensor_type;location;lat;lon;timestamp;P1;durP1;ratioP1;P2;durP2;ratioP2
35993;SDS011;22066;54.274;18.578;2023-03-23T00:02:37;26.35;;;12.07;;
35993;SDS011;22066;54.274;18.578;2023-03-23T00:05:07;23.95;;;12.27;;
35993;SDS011;22066;54.274;18.578;2023-03-23T00:07:33;27.05;;;12.68;;
35993;SDS011;22066;54.274;18.578;2023-03-23T00:10:00;25.35;;;12.23;;
35993;SDS011;22066;54.274;18.578;2023-03-23T00:12:28;25.33;;;14.10;;
35993;SDS011;22066;54.274;18.578;2023-03-23T00:15:01;24.08;;;13.45;;
35993;SDS011;22066;54.274;18.578;2023-03-23T00:17:28;23.50;;;12.95;;
35993;SDS011;22066;54.274;18.578;2023-03-23T00:19:54;22.55;;;12.60;;
35993;SDS011;22066;54.274;18.578;2023-03-23T00:22:21;20.80;;;11.73;;
35993;SDS011;22066;54.274;18.578;2023-03-23T00:24:50;23.10;;;12.55;;
35993;SDS011;22066;54.274;18.578;2023-03-23T00:27:16;27.52;;;14.27;;
35993;SDS011;22066;54.274;18.578;2023-03-23T00:29:43;29.15;;;14.50;;
35993;SDS011;22066;54.274;18.578;2023-03-23T00:32:10;29.05;;;13.60;;
35993;SDS011;22066;54.274;18.578;2023-03-23T00:34:37;26.48;;;13.52;;
35993;SDS011;22066;54.274;18.578;2023-03-23T00:37:03;29.52;;;13.13;;
35993;SDS011;22066;54.274;18.578;2023-03-23T00:39:29;30.15;;;14.38;;
35993;SDS011;22066;54.274;18.578;2023-03-23T00:41:55;24.73;;;13.05;;
35993;SDS011;22066;54.274;18.578;2023-03-23T00:44:26;22.35;;;12.35;;
35993;SDS011;22066;54.274;18.578;2023-03-23T00:46:53;22.10;;;12.30;;
35993;SDS011;22066;54.274;18.578;2023-03-23T00:49:21;22.83;;;13.25;;
35993;SDS011;22066;54.274;18.578;2023-03-23T00:51:51;28.65;;;13.63;;
35993;SDS011;22066;54.274;18.578;2023-03-23T00:54:17;25.05;;;11.88;;
35993;SDS011;22066;54.274;18.578;2023-03-23T00:56:43;20.73;;;11.43;;
35993;SDS011;22066;54.274;18.578;2023-03-23T00:59:09;19.17;;;10.95;;
35993;SDS011;22066;54.274;18.578;2023-03-23T01:01:35;21.67;;;11.88;;
35993;SDS011;22066;54.274;18.578;2023-03-23T01:04:02;22.80;;;11.95;;
35993;SDS011;22066;54.274;18.578;2023-03-23T01:06:36;21.55;;;11.77;;
35993;SDS011;22066;54.274;18.578;2023-03-23T01:09:06;19.48;;;11.38;;
35993;SDS011;22066;54.274;18.578;2023-03-23T01:11:32;19.17;;;11.55;;
35993;SDS011;22066;54.274;18.578;2023-03-23T01:13:59;20.60;;;9.95;;
35993;SDS011;22066;54.274;18.578;2023-03-23T01:16:25;17.95;;;10.35;;
35993;SDS011;22066;54.274;18.578;2023-03-23T01:18:51;23.10;;;10.38;;
35993;SDS011;22066;54.274;18.578;2023-03-23T01:21:18;22.33;;;11.10;;
35993;SDS011;22066;54.274;18.578;2023-03-23T01:23:45;21.95;;;10.57;;
35993;SDS011;22066;54.274;18.578;2023-03-23T01:26:12;20.13;;;10.88;;
35993;SDS011;22066;54.274;18.578;2023-03-23T01:28:39;23.45;;;12.23;;
35993;SDS011;22066;54.274;18.578;2023-03-23T01:31:09;19.42;;;10.63;;
35993;SDS011;22066;54.274;18.578;2023-03-23T01:33:37;18.75;;;9.98;;
35993;SDS011;22066;54.274;18.578;2023-03-23T01:36:04;21.58;;;10.27;;
35993;SDS011;22066;54.274;18.578;2023-03-23T01:38:30;18.55;;;10.23;;
35993;SDS011;22066;54.274;18.578;2023-03-23T01:40:57;16.67;;;9.13;;
35993;SDS011;22066;54.274;18.578;2023-03-23T01:43:23;24.10;;;10.02;;
35993;SDS011;22066;54.274;18.578;2023-03-23T01:45:49;15.05;;;9.52;;
35993;SDS011;22066;54.274;18.578;2023-03-23T01:48:17;19.50;;;10.73;;
35993;SDS011;22066;54.274;18.578;2023-03-23T01:53:34;18.77;;;10.23;;
35993;SDS011;22066;54.274;18.578;2023-03-23T01:56:03;19.02;;;10.15;;
35993;SDS011;22066;54.274;18.578;2023-03-23T01:58:30;16.98;;;9.20;;
35993;SDS011;22066;54.274;18.578;2023-03-23T02:00:58;17.10;;;9.68;;
35993;SDS011;22066;54.274;18.578;2023-03-23T02:03:25;16.67;;;9.85;;
35993;SDS011;22066;54.274;18.578;2023-03-23T02:05:52;19.48;;;9.82;;
35993;SDS011;22066;54.274;18.578;2023-03-23T02:08:19;16.73;;;9.40;;
35993;SDS011;22066;54.274;18.578;2023-03-23T02:10:45;17.63;;;10.07;;
35993;SDS011;22066;54.274;18.578;2023-03-23T02:13:11;18.10;;;9.73;;
35993;SDS011;22066;54.274;18.578;2023-03-23T02:15:43;16.42;;;9.80;;
35993;SDS011;22066;54.274;18.578;2023-03-23T02:23:25;20.67;;;10.80;;
35993;SDS011;22066;54.274;18.578;2023-03-23T02:26:02;19.30;;;10.75;;
35993;SDS011;22066;54.274;18.578;2023-03-23T02:39:12;16.55;;;9.45;;
35993;SDS011;22066;54.274;18.578;2023-03-23T02:41:41;19.60;;;9.65;;
35993;SDS011;22066;54.274;18.578;2023-03-23T02:44:09;17.52;;;9.93;;
35993;SDS011;22066;54.274;18.578;2023-03-23T02:46:36;18.25;;;9.40;;
35993;SDS011;22066;54.274;18.578;2023-03-23T02:49:03;17.48;;;9.77;;
35993;SDS011;22066;54.274;18.578;2023-03-23T02:51:29;19.75;;;9.70;;
35993;SDS011;22066;54.274;18.578;2023-03-23T02:53:56;19.30;;;9.63;;
35993;SDS011;22066;54.274;18.578;2023-03-23T02:56:23;17.88;;;8.90;;
35993;SDS011;22066;54.274;18.578;2023-03-23T02:58:50;22.27;;;10.77;;
35993;SDS011;22066;54.274;18.578;2023-03-23T03:03:57;19.90;;;9.50;;
35993;SDS011;22066;54.274;18.578;2023-03-23T03:09:04;16.10;;;7.82;;
35993;SDS011;22066;54.274;18.578;2023-03-23T03:11:33;17.25;;;8.90;;
35993;SDS011;22066;54.274;18.578;2023-03-23T03:14:02;22.63;;;9.18;;
35993;SDS011;22066;54.274;18.578;2023-03-23T03:16:31;19.85;;;9.52;;
35993;SDS011;22066;54.274;18.578;2023-03-23T03:21:27;15.00;;;8.13;;
35993;SDS011;22066;54.274;18.578;2023-03-23T03:23:55;17.55;;;8.20;;
35993;SDS011;22066;54.274;18.578;2023-03-23T03:26:24;17.15;;;8.75;;
35993;SDS011;22066;54.274;18.578;2023-03-23T03:28:52;15.90;;;8.80;;
35993;SDS011;22066;54.274;18.578;2023-03-23T03:31:19;21.98;;;9.77;;
35993;SDS011;22066;54.274;18.578;2023-03-23T03:33:46;17.95;;;9.35;;
35993;SDS011;22066;54.274;18.578;2023-03-23T03:36:15;16.33;;;9.00;;
35993;SDS011;22066;54.274;18.578;2023-03-23T03:38:43;19.00;;;8.48;;
35993;SDS011;22066;54.274;18.578;2023-03-23T03:41:09;17.25;;;8.00;;
35993;SDS011;22066;54.274;18.578;2023-03-23T03:43:35;14.15;;;8.57;;
35993;SDS011;22066;54.274;18.578;2023-03-23T03:46:02;20.95;;;9.00;;
35993;SDS011;22066;54.274;18.578;2023-03-23T03:48:28;18.60;;;7.70;;
35993;SDS011;22066;54.274;18.578;2023-03-23T03:50:54;16.10;;;8.20;;
35993;SDS011;22066;54.274;18.578;2023-03-23T03:53:22;18.77;;;8.32;;
35993;SDS011;22066;54.274;18.578;2023-03-23T03:55:48;19.23;;;9.60;;
35993;SDS011;22066;54.274;18.578;2023-03-23T03:58:15;16.60;;;8.25;;
35993;SDS011;22066;54.274;18.578;2023-03-23T04:00:41;19.48;;;9.95;;
35993;SDS011;22066;54.274;18.578;2023-03-23T04:03:07;22.58;;;10.68;;
35993;SDS011;22066;54.274;18.578;2023-03-23T04:05:34;21.83;;;10.38;;
35993;SDS011;22066;54.274;18.578;2023-03-23T04:08:01;23.77;;;10.95;;
35993;SDS011;22066;54.274;18.578;2023-03-23T04:10:29;22.05;;;9.57;;
35993;SDS011;22066;54.274;18.578;2023-03-23T04:12:56;15.00;;;8.73;;
35993;SDS011;22066;54.274;18.578;2023-03-23T04:15:22;18.95;;;9.25;;
35993;SDS011;22066;54.274;18.578;2023-03-23T04:17:48;17.83;;;8.82;;
35993;SDS011;22066;54.274;18.578;2023-03-23T04:20:15;15.85;;;8.02;;
35993;SDS011;22066;54.274;18.578;2023-03-23T04:22:44;16.67;;;8.45;;
35993;SDS011;22066;54.274;18.578;2023-03-23T04:25:14;14.93;;;7.95;;
35993;SDS011;22066;54.274;18.578;2023-03-23T04:27:41;14.57;;;8.40;;
35993;SDS011;22066;54.274;18.578;2023-03-23T04:30:11;15.05;;;8.38;;
35993;SDS011;22066;54.274;18.578;2023-03-23T04:32:38;15.20;;;8.10;;
35993;SDS011;22066;54.274;18.578;2023-03-23T04:35:07;13.32;;;8.07;;
35993;SDS011;22066;54.274;18.578;2023-03-23T04:37:33;13.27;;;7.90;;
35993;SDS011;22066;54.274;18.578;2023-03-23T04:40:00;17.25;;;7.35;;
35993;SDS011;22066;54.274;18.578;2023-03-23T04:42:27;17.77;;;9.15;;
35993;SDS011;22066;54.274;18.578;2023-03-23T04:44:53;17.88;;;7.93;;
35993;SDS011;22066;54.274;18.578;2023-03-23T04:47:20;20.50;;;8.93;;
35993;SDS011;22066;54.274;18.578;2023-03-23T04:49:46;14.88;;;8.13;;
35993;SDS011;22066;54.274;18.578;2023-03-23T04:52:12;21.73;;;8.70;;
35993;SDS011;22066;54.274;18.578;2023-03-23T04:54:39;14.05;;;7.13;;
35993;SDS011;22066;54.274;18.578;2023-03-23T04:57:05;22.77;;;8.90;;
35993;SDS011;22066;54.274;18.578;2023-03-23T04:59:33;18.67;;;10.02;;
35993;SDS011;22066;54.274;18.578;2023-03-23T05:01:59;18.15;;;9.18;;
35993;SDS011;22066;54.274;18.578;2023-03-23T05:04:25;16.05;;;9.05;;
35993;SDS011;22066;54.274;18.578;2023-03-23T05:06:51;17.58;;;9.18;;
35993;SDS011;22066;54.274;18.578;2023-03-23T05:09:18;18.20;;;8.57;;
35993;SDS011;22066;54.274;18.578;2023-03-23T05:11:44;22.15;;;10.25;;
35993;SDS011;22066;54.274;18.578;2023-03-23T05:14:11;21.77;;;9.15;;
35993;SDS011;22066;54.274;18.578;2023-03-23T05:16:37;19.33;;;11.10;;
35993;SDS011;22066;54.274;18.578;2023-03-23T05:19:03;17.95;;;9.85;;
35993;SDS011;22066;54.274;18.578;2023-03-23T05:21:30;19.00;;;10.13;;
35993;SDS011;22066;54.274;18.578;2023-03-23T05:23:56;15.25;;;8.00;;
35993;SDS011;22066;54.274;18.578;2023-03-23T05:26:25;15.93;;;7.53;;
35993;SDS011;22066;54.274;18.578;2023-03-23T05:28:55;13.48;;;7.15;;
35993;SDS011;22066;54.274;18.578;2023-03-23T05:31:22;15.40;;;7.53;;
35993;SDS011;22066;54.274;18.578;2023-03-23T05:33:49;17.63;;;8.80;;
35993;SDS011;22066;54.274;18.578;2023-03-23T05:36:15;20.42;;;11.00;;
35993;SDS011;22066;54.274;18.578;2023-03-23T05:38:42;16.70;;;8.95;;
35993;SDS011;22066;54.274;18.578;2023-03-23T05:43:36;12.45;;;6.45;;
35993;SDS011;22066;54.274;18.578;2023-03-23T05:46:02;15.73;;;6.88;;
35993;SDS011;22066;54.274;18.578;2023-03-23T05:48:28;20.33;;;7.72;;
35993;SDS011;22066;54.274;18.578;2023-03-23T05:50:54;22.05;;;8.52;;
35993;SDS011;22066;54.274;18.578;2023-03-23T05:53:21;11.73;;;6.97;;
35993;SDS011;22066;54.274;18.578;2023-03-23T05:55:49;17.33;;;6.95;;
35993;SDS011;22066;54.274;18.578;2023-03-23T05:58:15;13.55;;;6.68;;
35993;SDS011;22066;54.274;18.578;2023-03-23T06:00:41;8.80;;;6.05;;
35993;SDS011;22066;54.274;18.578;2023-03-23T06:03:07;14.52;;;6.28;;
35993;SDS011;22066;54.274;18.578;2023-03-23T06:05:34;13.90;;;8.57;;
35993;SDS011;22066;54.274;18.578;2023-03-23T06:08:00;11.20;;;5.82;;
35993;SDS011;22066;54.274;18.578;2023-03-23T06:10:26;18.48;;;9.60;;
35993;SDS011;22066;54.274;18.578;2023-03-23T06:12:52;15.35;;;8.43;;
35993;SDS011;22066;54.274;18.578;2023-03-23T06:15:18;11.88;;;7.35;;
35993;SDS011;22066;54.274;18.578;2023-03-23T06:17:44;12.23;;;6.85;;
35993;SDS011;22066;54.274;18.578;2023-03-23T06:20:11;13.32;;;7.72;;
35993;SDS011;22066;54.274;18.578;2023-03-23T06:22:37;15.18;;;6.95;;
35993;SDS011;22066;54.274;18.578;2023-03-23T06:25:07;12.85;;;6.07;;
35993;SDS011;22066;54.274;18.578;2023-03-23T06:27:33;18.83;;;7.32;;
35993;SDS011;22066;54.274;18.578;2023-03-23T06:30:00;13.88;;;6.80;;
35993;SDS011;22066;54.274;18.578;2023-03-23T06:32:28;12.45;;;6.35;;
35993;SDS011;22066;54.274;18.578;2023-03-23T06:34:54;11.38;;;6.60;;
35993;SDS011;22066;54.274;18.578;2023-03-23T06:37:22;19.88;;;7.82;;
35993;SDS011;22066;54.274;18.578;2023-03-23T06:39:49;13.15;;;6.10;;
35993;SDS011;22066;54.274;18.578;2023-03-23T06:42:18;14.77;;;6.28;;
35993;SDS011;22066;54.274;18.578;2023-03-23T06:44:45;10.95;;;6.00;;
35993;SDS011;22066;54.274;18.578;2023-03-23T06:47:20;14.93;;;7.00;;
35993;SDS011;22066;54.274;18.578;2023-03-23T06:49:48;13.57;;;6.13;;
35993;SDS011;22066;54.274;18.578;2023-03-23T06:52:14;14.20;;;6.43;;
35993;SDS011;22066;54.274;18.578;2023-03-23T06:54:43;10.13;;;5.80;;
35993;SDS011;22066;54.274;18.578;2023-03-23T06:57:09;10.48;;;5.75;;
35993;SDS011;22066;54.274;18.578;2023-03-23T06:59:42;12.32;;;5.85;;
35993;SDS011;22066;54.274;18.578;2023-03-23T07:02:10;12.80;;;6.68;;
35993;SDS011;22066;54.274;18.578;2023-03-23T07:04:46;10.32;;;6.10;;
35993;SDS011;22066;54.274;18.578;2023-03-23T07:07:13;12.27;;;5.85;;
35993;SDS011;22066;54.274;18.578;2023-03-23T07:09:39;14.00;;;6.63;;
35993;SDS011;22066;54.274;18.578;2023-03-23T07:12:06;14.93;;;6.95;;
35993;SDS011;22066;54.274;18.578;2023-03-23T07:14:32;14.23;;;7.65;;
35993;SDS011;22066;54.274;18.578;2023-03-23T07:16:58;12.70;;;6.13;;
35993;SDS011;22066;54.274;18.578;2023-03-23T07:19:28;10.57;;;5.82;;
35993;SDS011;22066;54.274;18.578;2023-03-23T07:21:54;11.38;;;6.22;;
35993;SDS011;22066;54.274;18.578;2023-03-23T07:24:22;14.07;;;7.47;;
35993;SDS011;22066;54.274;18.578;2023-03-23T07:26:48;13.18;;;5.70;;
35993;SDS011;22066;54.274;18.578;2023-03-23T07:29:14;13.55;;;5.45;;
35993;SDS011;22066;54.274;18.578;2023-03-23T07:31:40;10.93;;;5.45;;
35993;SDS011;22066;54.274;18.578;2023-03-23T07:34:07;12.35;;;5.22;;
35993;SDS011;22066;54.274;18.578;2023-03-23T07:36:33;18.20;;;5.93;;
35993;SDS011;22066;54.274;18.578;2023-03-23T07:39:02;14.98;;;5.38;;
35993;SDS011;22066;54.274;18.578;2023-03-23T07:41:30;16.48;;;6.68;;
35993;SDS011;22066;54.274;18.578;2023-03-23T07:43:56;8.68;;;4.82;;
35993;SDS011;22066;54.274;18.578;2023-03-23T07:46:23;10.35;;;5.13;;
35993;SDS011;22066;54.274;18.578;2023-03-23T07:48:58;8.07;;;4.53;;
35993;SDS011;22066;54.274;18.578;2023-03-23T07:51:43;12.35;;;4.90;;
35993;SDS011;22066;54.274;18.578;2023-03-23T07:54:12;12.35;;;5.20;;
35993;SDS011;22066;54.274;18.578;2023-03-23T07:56:45;14.70;;;5.80;;
35993;SDS011;22066;54.274;18.578;2023-03-23T07:59:12;10.40;;;4.80;;
35993;SDS011;22066;54.274;18.578;2023-03-23T08:04:06;13.00;;;5.97;;
35993;SDS011;22066;54.274;18.578;2023-03-23T08:06:48;9.75;;;4.93;;
35993;SDS011;22066;54.274;18.578;2023-03-23T08:09:14;10.50;;;4.75;;
35993;SDS011;22066;54.274;18.578;2023-03-23T08:11:50;7.15;;;4.15;;
35993;SDS011;22066;54.274;18.578;2023-03-23T08:14:19;7.50;;;3.70;;
35993;SDS011;22066;54.274;18.578;2023-03-23T08:16:51;17.85;;;6.60;;
35993;SDS011;22066;54.274;18.578;2023-03-23T08:19:36;14.25;;;7.15;;
35993;SDS011;22066;54.274;18.578;2023-03-23T08:22:08;12.68;;;5.70;;
35993;SDS011;22066;54.274;18.578;2023-03-23T08:24:34;11.35;;;5.30;;
35993;SDS011;22066;54.274;18.578;2023-03-23T08:27:00;13.27;;;5.82;;
35993;SDS011;22066;54.274;18.578;2023-03-23T08:29:41;12.15;;;6.35;;
35993;SDS011;22066;54.274;18.578;2023-03-23T08:32:09;19.70;;;8.77;;
35993;SDS011;22066;54.274;18.578;2023-03-23T08:34:44;19.15;;;11.88;;
35993;SDS011;22066;54.274;18.578;2023-03-23T08:37:10;10.35;;;5.25;;
35993;SDS011;22066;54.274;18.578;2023-03-23T08:39:36;9.60;;;4.88;;
35993;SDS011;22066;54.274;18.578;2023-03-23T08:42:03;10.93;;;5.07;;
35993;SDS011;22066;54.274;18.578;2023-03-23T08:44:29;7.78;;;4.30;;
35993;SDS011;22066;54.274;18.578;2023-03-23T08:46:55;10.15;;;5.00;;
35993;SDS011;22066;54.274;18.578;2023-03-23T08:49:22;7.80;;;4.63;;
35993;SDS011;22066;54.274;18.578;2023-03-23T08:51:48;7.65;;;4.00;;
35993;SDS011;22066;54.274;18.578;2023-03-23T08:54:14;6.93;;;3.97;;
35993;SDS011;22066;54.274;18.578;2023-03-23T08:56:42;6.35;;;3.85;;
35993;SDS011;22066;54.274;18.578;2023-03-23T08:59:23;14.50;;;5.18;;
35993;SDS011;22066;54.274;18.578;2023-03-23T09:01:59;8.48;;;4.72;;
35993;SDS011;22066;54.274;18.578;2023-03-23T09:04:25;11.68;;;4.30;;
35993;SDS011;22066;54.274;18.578;2023-03-23T09:06:51;9.52;;;3.92;;
35993;SDS011;22066;54.274;18.578;2023-03-23T09:09:17;14.68;;;4.80;;
35993;SDS011;22066;54.274;18.578;2023-03-23T09:11:47;7.38;;;3.75;;
35993;SDS011;22066;54.274;18.578;2023-03-23T09:14:13;7.80;;;3.83;;
35993;SDS011;22066;54.274;18.578;2023-03-23T09:16:45;9.32;;;4.35;;
35993;SDS011;22066;54.274;18.578;2023-03-23T09:19:11;14.13;;;8.85;;
35993;SDS011;22066;54.274;18.578;2023-03-23T09:21:40;13.00;;;7.53;;
35993;SDS011;22066;54.274;18.578;2023-03-23T09:24:12;12.40;;;8.90;;
35993;SDS011;22066;54.274;18.578;2023-03-23T09:26:39;9.15;;;5.28;;
35993;SDS011;22066;54.274;18.578;2023-03-23T09:29:05;7.85;;;5.57;;
35993;SDS011;22066;54.274;18.578;2023-03-23T09:31:49;9.90;;;4.55;;
35993;SDS011;22066;54.274;18.578;2023-03-23T09:34:15;7.05;;;4.53;;
35993;SDS011;22066;54.274;18.578;2023-03-23T09:36:42;9.73;;;3.80;;
35993;SDS011;22066;54.274;18.578;2023-03-23T09:39:09;10.27;;;4.47;;
35993;SDS011;22066;54.274;18.578;2023-03-23T09:41:43;6.90;;;3.88;;
35993;SDS011;22066;54.274;18.578;2023-03-23T09:47:01;6.50;;;3.70;;
35993;SDS011;22066;54.274;18.578;2023-03-23T09:49:32;11.27;;;4.38;;
35993;SDS011;22066;54.274;18.578;2023-03-23T09:52:01;7.68;;;3.67;;
35993;SDS011;22066;54.274;18.578;2023-03-23T09:54:35;7.00;;;3.17;;
35993;SDS011;22066;54.274;18.578;2023-03-23T09:57:03;9.57;;;4.47;;
35993;SDS011;22066;54.274;18.578;2023-03-23T10:04:50;5.95;;;2.75;;
35993;SDS011;22066;54.274;18.578;2023-03-23T10:07:20;6.88;;;4.10;;
35993;SDS011;22066;54.274;18.578;2023-03-23T10:09:49;6.05;;;3.03;;
35993;SDS011;22066;54.274;18.578;2023-03-23T10:17:42;6.93;;;2.92;;
35993;SDS011;22066;54.274;18.578;2023-03-23T10:22:39;4.88;;;3.00;;
35993;SDS011;22066;54.274;18.578;2023-03-23T10:25:14;7.05;;;3.72;;
35993;SDS011;22066;54.274;18.578;2023-03-23T10:30:19;9.85;;;3.90;;
35993;SDS011;22066;54.274;18.578;2023-03-23T10:33:20;12.23;;;3.93;;
35993;SDS011;22066;54.274;18.578;2023-03-23T10:35:50;8.93;;;3.97;;
35993;SDS011;22066;54.274;18.578;2023-03-23T10:38:29;7.70;;;2.88;;
35993;SDS011;22066;54.274;18.578;2023-03-23T10:40:59;7.45;;;3.00;;
35993;SDS011;22066;54.274;18.578;2023-03-23T10:43:26;4.97;;;2.20;;
35993;SDS011;22066;54.274;18.578;2023-03-23T10:46:03;5.25;;;2.67;;
35993;SDS011;22066;54.274;18.578;2023-03-23T10:48:33;4.50;;;2.40;;
35993;SDS011;22066;54.274;18.578;2023-03-23T10:51:03;4.63;;;2.58;;
35993;SDS011;22066;54.274;18.578;2023-03-23T10:53:33;6.25;;;2.63;;
35993;SDS011;22066;54.274;18.578;2023-03-23T10:56:00;6.28;;;3.05;;
35993;SDS011;22066;54.274;18.578;2023-03-23T10:58:28;6.07;;;2.17;;
35993;SDS011;22066;54.274;18.578;2023-03-23T11:00:55;4.68;;;2.05;;
35993;SDS011;22066;54.274;18.578;2023-03-23T11:03:23;4.43;;;2.00;;
35993;SDS011;22066;54.274;18.578;2023-03-23T11:06:01;6.28;;;2.30;;
35993;SDS011;22066;54.274;18.578;2023-03-23T11:08:32;3.08;;;1.80;;
35993;SDS011;22066;54.274;18.578;2023-03-23T11:13:37;3.63;;;2.10;;
35993;SDS011;22066;54.274;18.578;2023-03-23T11:16:04;4.40;;;2.00;;
35993;SDS011;22066;54.274;18.578;2023-03-23T11:18:36;4.45;;;1.98;;
35993;SDS011;22066;54.274;18.578;2023-03-23T11:21:02;4.43;;;2.05;;
35993;SDS011;22066;54.274;18.578;2023-03-23T11:23:31;4.67;;;2.17;;
35993;SDS011;22066;54.274;18.578;2023-03-23T11:28:31;3.63;;;1.95;;
35993;SDS011;22066;54.274;18.578;2023-03-23T11:30:59;4.13;;;2.00;;
35993;SDS011;22066;54.274;18.578;2023-03-23T11:33:28;4.10;;;2.40;;
35993;SDS011;22066;54.274;18.578;2023-03-23T11:35:55;4.38;;;2.45;;
35993;SDS011;22066;54.274;18.578;2023-03-23T11:38:21;3.60;;;1.90;;
35993;SDS011;22066;54.274;18.578;2023-03-23T11:40:50;3.63;;;2.10;;
35993;SDS011;22066;54.274;18.578;2023-03-23T11:43:22;4.40;;;2.28;;
35993;SDS011;22066;54.274;18.578;2023-03-23T11:54:09;4.13;;;2.00;;
35993;SDS011;22066;54.274;18.578;2023-03-23T11:56:39;9.05;;;3.58;;
35993;SDS011;22066;54.274;18.578;2023-03-23T11:59:10;7.32;;;4.43;;
35993;SDS011;22066;54.274;18.578;2023-03-23T12:09:25;4.35;;;2.13;;
35993;SDS011;22066;54.274;18.578;2023-03-23T12:22:36;4.75;;;2.50;;
35993;SDS011;22066;54.274;18.578;2023-03-23T12:48:40;4.40;;;2.33;;
35993;SDS011;22066;54.274;18.578;2023-03-23T12:53:53;3.88;;;1.98;;
35993;SDS011;22066;54.274;18.578;2023-03-23T12:58:50;3.92;;;2.22;;
35993;SDS011;22066;54.274;18.578;2023-03-23T13:01:38;5.10;;;2.08;;
35993;SDS011;22066;54.274;18.578;2023-03-23T13:04:10;4.60;;;1.95;;
35993;SDS011;22066;54.274;18.578;2023-03-23T13:06:41;7.68;;;2.38;;
35993;SDS011;22066;54.274;18.578;2023-03-23T13:11:41;6.07;;;3.67;;
35993;SDS011;22066;54.274;18.578;2023-03-23T13:22:15;4.60;;;2.22;;
35993;SDS011;22066;54.274;18.578;2023-03-23T13:25:06;2.95;;;1.60;;
35993;SDS011;22066;54.274;18.578;2023-03-23T13:27:30;4.65;;;1.92;;
35993;SDS011;22066;54.274;18.578;2023-03-23T13:29:57;4.35;;;1.92;;
35993;SDS011;22066;54.274;18.578;2023-03-23T13:32:34;8.25;;;2.13;;
35993;SDS011;22066;54.274;18.578;2023-03-23T13:35:02;2.95;;;1.30;;
35993;SDS011;22066;54.274;18.578;2023-03-23T13:37:29;3.85;;;1.73;;
35993;SDS011;22066;54.274;18.578;2023-03-23T13:49:56;3.58;;;2.00;;
35993;SDS011;22066;54.274;18.578;2023-03-23T13:54:52;4.22;;;2.15;;
35993;SDS011;22066;54.274;18.578;2023-03-23T13:57:19;6.13;;;2.50;;
35993;SDS011;22066;54.274;18.578;2023-03-23T14:04:57;3.08;;;1.40;;
35993;SDS011;22066;54.274;18.578;2023-03-23T14:07:49;4.75;;;1.73;;
35993;SDS011;22066;54.274;18.578;2023-03-23T14:10:16;3.83;;;1.88;;
35993;SDS011;22066;54.274;18.578;2023-03-23T14:12:43;3.22;;;1.50;;
35993;SDS011;22066;54.274;18.578;2023-03-23T14:15:11;4.13;;;1.88;;
35993;SDS011;22066;54.274;18.578;2023-03-23T14:17:42;4.00;;;2.00;;
35993;SDS011;22066;54.274;18.578;2023-03-23T14:20:09;3.28;;;1.50;;
35993;SDS011;22066;54.274;18.578;2023-03-23T14:22:41;3.83;;;1.92;;
35993;SDS011;22066;54.274;18.578;2023-03-23T14:25:15;3.45;;;2.00;;
35993;SDS011;22066;54.274;18.578;2023-03-23T14:27:42;6.05;;;2.08;;
35993;SDS011;22066;54.274;18.578;2023-03-23T14:30:12;3.97;;;1.90;;
35993;SDS011;22066;54.274;18.578;2023-03-23T14:32:39;3.53;;;1.50;;
35993;SDS011;22066;54.274;18.578;2023-03-23T14:35:13;3.10;;;1.55;;
35993;SDS011;22066;54.274;18.578;2023-03-23T14:37:40;4.50;;;2.03;;
35993;SDS011;22066;54.274;18.578;2023-03-23T14:40:08;4.22;;;1.90;;
35993;SDS011;22066;54.274;18.578;2023-03-23T14:42:37;9.93;;;3.85;;
35993;SDS011;22066;54.274;18.578;2023-03-23T14:45:04;3.97;;;1.95;;
35993;SDS011;22066;54.274;18.578;2023-03-23T14:47:34;4.00;;;2.23;;
35993;SDS011;22066;54.274;18.578;2023-03-23T14:50:02;7.28;;;2.70;;
35993;SDS011;22066;54.274;18.578;2023-03-23T14:52:34;4.55;;;2.28;;
35993;SDS011;22066;54.274;18.578;2023-03-23T14:55:11;4.95;;;2.35;;
35993;SDS011;22066;54.274;18.578;2023-03-23T14:57:39;7.32;;;2.47;;
35993;SDS011;22066;54.274;18.578;2023-03-23T15:00:11;4.53;;;2.17;;
35993;SDS011;22066;54.274;18.578;2023-03-23T15:02:38;4.15;;;1.80;;
35993;SDS011;22066;54.274;18.578;2023-03-23T15:05:20;4.55;;;2.22;;
35993;SDS011;22066;54.274;18.578;2023-03-23T15:07:51;3.85;;;1.95;;
35993;SDS011;22066;54.274;18.578;2023-03-23T15:10:20;4.13;;;2.10;;
35993;SDS011;22066;54.274;18.578;2023-03-23T15:12:47;3.80;;;1.85;;
35993;SDS011;22066;54.274;18.578;2023-03-23T15:17:52;4.82;;;2.22;;
35993;SDS011;22066;54.274;18.578;2023-03-23T15:20:21;5.30;;;2.17;;
35993;SDS011;22066;54.274;18.578;2023-03-23T15:22:48;5.53;;;1.80;;
35993;SDS011;22066;54.274;18.578;2023-03-23T15:25:21;4.78;;;2.28;;
35993;SDS011;22066;54.274;18.578;2023-03-23T15:27:52;6.72;;;2.10;;
35993;SDS011;22066;54.274;18.578;2023-03-23T15:32:48;4.53;;;2.17;;
35993;SDS011;22066;54.274;18.578;2023-03-23T15:35:19;4.10;;;1.90;;
35993;SDS011;22066;54.274;18.578;2023-03-23T15:37:51;3.83;;;2.15;;
35993;SDS011;22066;54.274;18.578;2023-03-23T15:40:17;4.80;;;2.28;;
35993;SDS011;22066;54.274;18.578;2023-03-23T15:42:44;3.47;;;1.92;;
35993;SDS011;22066;54.274;18.578;2023-03-23T15:50:49;5.65;;;2.53;;
35993;SDS011;22066;54.274;18.578;2023-03-23T15:52:51;4.53;;;2.10;;
35993;SDS011;22066;54.274;18.578;2023-03-23T15:57:43;6.50;;;2.85;;
35993;SDS011;22066;54.274;18.578;2023-03-23T16:00:09;5.82;;;2.28;;
35993;SDS011;22066;54.274;18.578;2023-03-23T16:02:36;4.80;;;2.08;;
35993;SDS011;22066;54.274;18.578;2023-03-23T16:05:02;4.65;;;2.30;;
35993;SDS011;22066;54.274;18.578;2023-03-23T16:07:28;5.28;;;2.42;;
35993;SDS011;22066;54.274;18.578;2023-03-23T16:09:55;7.90;;;2.60;;
35993;SDS011;22066;54.274;18.578;2023-03-23T16:12:21;5.18;;;2.15;;
35993;SDS011;22066;54.274;18.578;2023-03-23T16:14:47;5.50;;;1.95;;
35993;SDS011;22066;54.274;18.578;2023-03-23T16:17:14;7.25;;;2.25;;
35993;SDS011;22066;54.274;18.578;2023-03-23T16:19:41;4.78;;;2.53;;
35993;SDS011;22066;54.274;18.578;2023-03-23T16:22:08;5.35;;;1.98;;
35993;SDS011;22066;54.274;18.578;2023-03-23T16:24:34;6.10;;;2.20;;
35993;SDS011;22066;54.274;18.578;2023-03-23T16:27:00;4.50;;;2.08;;
35993;SDS011;22066;54.274;18.578;2023-03-23T16:29:26;4.05;;;2.00;;
35993;SDS011;22066;54.274;18.578;2023-03-23T16:31:53;5.50;;;2.38;;
35993;SDS011;22066;54.274;18.578;2023-03-23T16:34:19;4.40;;;1.90;;
35993;SDS011;22066;54.274;18.578;2023-03-23T16:36:45;6.53;;;3.03;;
35993;SDS011;22066;54.274;18.578;2023-03-23T16:39:11;5.03;;;2.65;;
35993;SDS011;22066;54.274;18.578;2023-03-23T16:41:37;6.43;;;2.90;;
35993;SDS011;22066;54.274;18.578;2023-03-23T16:44:05;13.00;;;5.70;;
35993;SDS011;22066;54.274;18.578;2023-03-23T16:46:31;4.82;;;2.08;;
35993;SDS011;22066;54.274;18.578;2023-03-23T16:48:57;6.03;;;2.22;;
35993;SDS011;22066;54.274;18.578;2023-03-23T16:51:23;3.92;;;1.92;;
35993;SDS011;22066;54.274;18.578;2023-03-23T16:53:49;4.32;;;2.13;;
35993;SDS011;22066;54.274;18.578;2023-03-23T16:56:15;3.25;;;1.77;;
35993;SDS011;22066;54.274;18.578;2023-03-23T16:58:41;4.07;;;1.80;;
35993;SDS011;22066;54.274;18.578;2023-03-23T17:01:07;3.15;;;1.40;;
35993;SDS011;22066;54.274;18.578;2023-03-23T17:03:33;9.13;;;1.45;;
35993;SDS011;22066;54.274;18.578;2023-03-23T17:06:00;4.82;;;1.13;;